sensor_id;sensor_type;location;lat;lon;timestamp;temperature;humidity
51215;DHT22;63849;47.546;19.254;2023-02-02T00:00:47;4.00;85.10
51215;DHT22;63849;47.546;19.254;2023-02-02T00:03:14;4.00;85.40
51215;DHT22;63849;47.546;19.254;2023-02-02T00:05:47;4.10;85.40
51215;DHT22;63849;47.546;19.254;2023-02-02T00:08:18;4.00;85.40
51215;DHT22;63849;47.546;19.254;2023-02-02T00:10:44;3.90;85.80
51215;DHT22;63849;47.546;19.254;2023-02-02T00:13:10;4.00;85.90
51215;DHT22;63849;47.546;19.254;2023-02-02T00:15:37;3.90;86.00
51215;DHT22;63849;47.546;19.254;2023-02-02T00:18:03;3.90;86.00
51215;DHT22;63849;47.546;19.254;2023-02-02T00:20:29;3.90;85.80
51215;DHT22;63849;47.546;19.254;2023-02-02T00:22:56;3.90;86.10
51215;DHT22;63849;47.546;19.254;2023-02-02T00:25:22;3.90;85.80
51215;DHT22;63849;47.546;19.254;2023-02-02T00:27:48;3.90;86.20
51215;DHT22;63849;47.546;19.254;2023-02-02T00:30:13;4.00;85.90
51215;DHT22;63849;47.546;19.254;2023-02-02T00:32:39;3.90;86.10
51215;DHT22;63849;47.546;19.254;2023-02-02T00:35:07;3.80;86.40
51215;DHT22;63849;47.546;19.254;2023-02-02T00:37:33;3.70;86.80
51215;DHT22;63849;47.546;19.254;2023-02-02T00:39:59;3.80;86.50
51215;DHT22;63849;47.546;19.254;2023-02-02T00:42:25;3.70;86.30
51215;DHT22;63849;47.546;19.254;2023-02-02T00:44:50;3.70;86.50
51215;DHT22;63849;47.546;19.254;2023-02-02T00:47:35;3.80;86.10
51215;DHT22;63849;47.546;19.254;2023-02-02T00:50:01;3.80;86.00
51215;DHT22;63849;47.546;19.254;2023-02-02T00:52:27;3.70;86.30
51215;DHT22;63849;47.546;19.254;2023-02-02T00:54:53;3.60;86.20
51215;DHT22;63849;47.546;19.254;2023-02-02T00:57:19;3.60;86.60
51215;DHT22;63849;47.546;19.254;2023-02-02T00:59:44;3.50;86.50
51215;DHT22;63849;47.546;19.254;2023-02-02T01:02:11;3.40;86.80
51215;DHT22;63849;47.546;19.254;2023-02-02T01:04:37;3.50;86.70
51215;DHT22;63849;47.546;19.254;2023-02-02T01:07:04;3.40;87.20
51215;DHT22;63849;47.546;19.254;2023-02-02T01:09:30;3.30;87.00
51215;DHT22;63849;47.546;19.254;2023-02-02T01:11:55;3.40;86.60
51215;DHT22;63849;47.546;19.254;2023-02-02T01:14:21;3.40;86.50
51215;DHT22;63849;47.546;19.254;2023-02-02T01:16:47;3.30;86.60
51215;DHT22;63849;47.546;19.254;2023-02-02T01:19:14;3.30;86.40
51215;DHT22;63849;47.546;19.254;2023-02-02T01:21:40;3.20;86.70
51215;DHT22;63849;47.546;19.254;2023-02-02T01:24:06;3.20;86.40
51215;DHT22;63849;47.546;19.254;2023-02-02T01:26:32;3.20;86.20
51215;DHT22;63849;47.546;19.254;2023-02-02T01:28:58;3.20;86.40
51215;DHT22;63849;47.546;19.254;2023-02-02T01:31:23;3.30;86.20
51215;DHT22;63849;47.546;19.254;2023-02-02T01:33:49;3.30;86.20
51215;DHT22;63849;47.546;19.254;2023-02-02T01:36:17;3.40;85.80
51215;DHT22;63849;47.546;19.254;2023-02-02T01:38:44;3.30;85.40
51215;DHT22;63849;47.546;19.254;2023-02-02T01:41:15;3.30;85.50
51215;DHT22;63849;47.546;19.254;2023-02-02T01:46:15;3.30;85.70
51215;DHT22;63849;47.546;19.254;2023-02-02T01:48:45;3.30;85.60
51215;DHT22;63849;47.546;19.254;2023-02-02T01:51:17;3.30;85.70
51215;DHT22;63849;47.546;19.254;2023-02-02T01:53:45;3.20;86.10
51215;DHT22;63849;47.546;19.254;2023-02-02T01:56:25;3.20;86.10
51215;DHT22;63849;47.546;19.254;2023-02-02T01:58:52;3.20;85.80
51215;DHT22;63849;47.546;19.254;2023-02-02T02:01:18;3.20;86.00
51215;DHT22;63849;47.546;19.254;2023-02-02T02:03:43;3.10;86.10
51215;DHT22;63849;47.546;19.254;2023-02-02T02:06:16;3.10;86.20
51215;DHT22;63849;47.546;19.254;2023-02-02T02:09:03;3.10;86.10
51215;DHT22;63849;47.546;19.254;2023-02-02T02:11:29;3.00;85.80
51215;DHT22;63849;47.546;19.254;2023-02-02T02:13:58;3.00;85.50
51215;DHT22;63849;47.546;19.254;2023-02-02T02:34:13;3.00;84.50
51215;DHT22;63849;47.546;19.254;2023-02-02T02:39:35;3.00;84.70
51215;DHT22;63849;47.546;19.254;2023-02-02T02:42:09;3.00;84.50
51215;DHT22;63849;47.546;19.254;2023-02-02T02:44:35;3.10;84.70
51215;DHT22;63849;47.546;19.254;2023-02-02T02:47:02;3.00;84.70
51215;DHT22;63849;47.546;19.254;2023-02-02T02:49:28;3.00;84.80
51215;DHT22;63849;47.546;19.254;2023-02-02T02:51:54;2.90;85.10
51215;DHT22;63849;47.546;19.254;2023-02-02T02:54:29;2.80;85.30
51215;DHT22;63849;47.546;19.254;2023-02-02T03:03:21;2.80;85.50
51215;DHT22;63849;47.546;19.254;2023-02-02T03:05:58;2.90;85.40
51215;DHT22;63849;47.546;19.254;2023-02-02T03:08:36;2.80;85.70
51215;DHT22;63849;47.546;19.254;2023-02-02T03:11:06;2.70;86.20
51215;DHT22;63849;47.546;19.254;2023-02-02T03:13:33;2.80;86.00
51215;DHT22;63849;47.546;19.254;2023-02-02T03:15:59;2.80;86.10
51215;DHT22;63849;47.546;19.254;2023-02-02T03:18:28;2.80;86.20
51215;DHT22;63849;47.546;19.254;2023-02-02T03:20:54;2.80;86.40
51215;DHT22;63849;47.546;19.254;2023-02-02T03:23:20;2.80;86.30
51215;DHT22;63849;47.546;19.254;2023-02-02T03:25:46;2.90;85.80
51215;DHT22;63849;47.546;19.254;2023-02-02T03:28:12;2.80;86.00
51215;DHT22;63849;47.546;19.254;2023-02-02T03:30:39;2.90;85.60
51215;DHT22;63849;47.546;19.254;2023-02-02T03:33:06;2.90;85.60
51215;DHT22;63849;47.546;19.254;2023-02-02T03:35:32;2.90;85.60
51215;DHT22;63849;47.546;19.254;2023-02-02T03:37:58;2.90;85.70
51215;DHT22;63849;47.546;19.254;2023-02-02T03:40:23;2.90;85.70
51215;DHT22;63849;47.546;19.254;2023-02-02T03:42:49;2.90;85.60
51215;DHT22;63849;47.546;19.254;2023-02-02T03:45:15;2.90;85.50
51215;DHT22;63849;47.546;19.254;2023-02-02T03:47:40;3.00;85.30
51215;DHT22;63849;47.546;19.254;2023-02-02T03:50:07;3.00;85.10
51215;DHT22;63849;47.546;19.254;2023-02-02T03:52:33;3.00;84.90
51215;DHT22;63849;47.546;19.254;2023-02-02T03:54:58;3.00;85.00
51215;DHT22;63849;47.546;19.254;2023-02-02T03:57:24;3.00;85.00
51215;DHT22;63849;47.546;19.254;2023-02-02T03:59:50;2.90;85.10
51215;DHT22;63849;47.546;19.254;2023-02-02T04:02:16;2.80;85.60
51215;DHT22;63849;47.546;19.254;2023-02-02T04:04:42;2.80;85.40
51215;DHT22;63849;47.546;19.254;2023-02-02T04:07:07;2.80;85.50
51215;DHT22;63849;47.546;19.254;2023-02-02T04:09:33;2.80;85.40
51215;DHT22;63849;47.546;19.254;2023-02-02T04:11:59;2.80;84.80
51215;DHT22;63849;47.546;19.254;2023-02-02T04:14:25;2.70;85.20
51215;DHT22;63849;47.546;19.254;2023-02-02T04:16:50;2.70;85.20
51215;DHT22;63849;47.546;19.254;2023-02-02T04:19:16;2.80;84.60
51215;DHT22;63849;47.546;19.254;2023-02-02T04:21:42;2.70;84.80
51215;DHT22;63849;47.546;19.254;2023-02-02T04:24:12;2.60;84.90
51215;DHT22;63849;47.546;19.254;2023-02-02T04:26:38;2.60;84.60
51215;DHT22;63849;47.546;19.254;2023-02-02T04:29:04;2.60;84.70
51215;DHT22;63849;47.546;19.254;2023-02-02T04:31:30;2.60;84.40
51215;DHT22;63849;47.546;19.254;2023-02-02T04:33:56;2.60;84.10
51215;DHT22;63849;47.546;19.254;2023-02-02T04:36:22;2.60;84.00
51215;DHT22;63849;47.546;19.254;2023-02-02T04:38:49;2.60;84.10
51215;DHT22;63849;47.546;19.254;2023-02-02T04:41:15;2.60;83.80
51215;DHT22;63849;47.546;19.254;2023-02-02T04:43:43;2.60;83.90
51215;DHT22;63849;47.546;19.254;2023-02-02T04:46:09;2.50;84.60
51215;DHT22;63849;47.546;19.254;2023-02-02T04:48:35;2.50;84.30
51215;DHT22;63849;47.546;19.254;2023-02-02T04:51:04;2.50;84.40
51215;DHT22;63849;47.546;19.254;2023-02-02T04:53:31;2.40;84.50
51215;DHT22;63849;47.546;19.254;2023-02-02T04:56:03;2.40;84.40
51215;DHT22;63849;47.546;19.254;2023-02-02T04:58:29;2.50;84.30
51215;DHT22;63849;47.546;19.254;2023-02-02T05:00:54;2.50;84.10
51215;DHT22;63849;47.546;19.254;2023-02-02T05:03:20;2.50;84.00
51215;DHT22;63849;47.546;19.254;2023-02-02T05:05:46;2.50;84.10
51215;DHT22;63849;47.546;19.254;2023-02-02T05:08:11;2.40;84.20
51215;DHT22;63849;47.546;19.254;2023-02-02T05:10:41;2.40;84.30
51215;DHT22;63849;47.546;19.254;2023-02-02T05:13:07;2.40;84.00
51215;DHT22;63849;47.546;19.254;2023-02-02T05:15:34;2.30;84.20
51215;DHT22;63849;47.546;19.254;2023-02-02T05:18:00;2.30;84.20
51215;DHT22;63849;47.546;19.254;2023-02-02T05:20:26;2.20;84.50
51215;DHT22;63849;47.546;19.254;2023-02-02T05:22:51;2.20;84.80
51215;DHT22;63849;47.546;19.254;2023-02-02T05:25:17;2.20;85.00
51215;DHT22;63849;47.546;19.254;2023-02-02T05:27:44;2.20;84.70
51215;DHT22;63849;47.546;19.254;2023-02-02T05:30:11;2.20;84.50
51215;DHT22;63849;47.546;19.254;2023-02-02T05:32:38;2.10;84.60
51215;DHT22;63849;47.546;19.254;2023-02-02T05:35:04;2.10;84.60
51215;DHT22;63849;47.546;19.254;2023-02-02T05:37:30;2.10;84.90
51215;DHT22;63849;47.546;19.254;2023-02-02T05:39:55;2.00;84.90
51215;DHT22;63849;47.546;19.254;2023-02-02T05:42:21;1.90;85.30
51215;DHT22;63849;47.546;19.254;2023-02-02T05:44:47;2.00;84.90
51215;DHT22;63849;47.546;19.254;2023-02-02T05:47:13;1.90;85.00
51215;DHT22;63849;47.546;19.254;2023-02-02T05:49:38;1.80;85.40
51215;DHT22;63849;47.546;19.254;2023-02-02T05:52:04;1.80;85.10
51215;DHT22;63849;47.546;19.254;2023-02-02T05:54:30;1.90;84.90
51215;DHT22;63849;47.546;19.254;2023-02-02T05:56:56;1.90;84.80
51215;DHT22;63849;47.546;19.254;2023-02-02T05:59:25;1.90;84.70
51215;DHT22;63849;47.546;19.254;2023-02-02T06:01:52;1.90;84.60
51215;DHT22;63849;47.546;19.254;2023-02-02T06:04:19;2.00;84.40
51215;DHT22;63849;47.546;19.254;2023-02-02T06:06:44;1.90;84.60
51215;DHT22;63849;47.546;19.254;2023-02-02T06:09:12;2.00;84.30
51215;DHT22;63849;47.546;19.254;2023-02-02T06:11:38;1.90;84.30
51215;DHT22;63849;47.546;19.254;2023-02-02T06:14:04;1.90;84.60
51215;DHT22;63849;47.546;19.254;2023-02-02T06:16:30;1.90;84.30
51215;DHT22;63849;47.546;19.254;2023-02-02T06:18:56;2.00;84.20
51215;DHT22;63849;47.546;19.254;2023-02-02T06:21:22;2.00;83.90
51215;DHT22;63849;47.546;19.254;2023-02-02T06:23:49;2.00;83.90
51215;DHT22;63849;47.546;19.254;2023-02-02T06:26:16;2.00;83.80
51215;DHT22;63849;47.546;19.254;2023-02-02T06:28:46;1.90;84.00
51215;DHT22;63849;47.546;19.254;2023-02-02T06:31:13;1.80;84.50
51215;DHT22;63849;47.546;19.254;2023-02-02T06:33:44;1.80;84.50
51215;DHT22;63849;47.546;19.254;2023-02-02T06:36:10;1.90;83.80
51215;DHT22;63849;47.546;19.254;2023-02-02T06:38:36;1.90;83.70
51215;DHT22;63849;47.546;19.254;2023-02-02T06:41:02;1.90;83.80
51215;DHT22;63849;47.546;19.254;2023-02-02T06:43:28;1.90;83.70
51215;DHT22;63849;47.546;19.254;2023-02-02T06:45:56;1.80;84.00
51215;DHT22;63849;47.546;19.254;2023-02-02T06:48:21;2.00;83.70
51215;DHT22;63849;47.546;19.254;2023-02-02T06:50:47;2.00;83.40
51215;DHT22;63849;47.546;19.254;2023-02-02T06:53:13;2.00;83.30
51215;DHT22;63849;47.546;19.254;2023-02-02T06:55:39;2.10;83.10
51215;DHT22;63849;47.546;19.254;2023-02-02T06:58:05;2.10;83.10
51215;DHT22;63849;47.546;19.254;2023-02-02T07:00:31;2.20;82.70
51215;DHT22;63849;47.546;19.254;2023-02-02T07:02:57;2.30;81.70
51215;DHT22;63849;47.546;19.254;2023-02-02T07:05:23;2.40;81.60
51215;DHT22;63849;47.546;19.254;2023-02-02T07:07:50;2.40;81.70
51215;DHT22;63849;47.546;19.254;2023-02-02T07:10:16;2.40;82.00
51215;DHT22;63849;47.546;19.254;2023-02-02T07:12:43;2.50;81.30
51215;DHT22;63849;47.546;19.254;2023-02-02T07:15:09;2.50;81.20
51215;DHT22;63849;47.546;19.254;2023-02-02T07:17:35;2.50;81.60
51215;DHT22;63849;47.546;19.254;2023-02-02T07:20:01;2.50;81.90
51215;DHT22;63849;47.546;19.254;2023-02-02T07:22:26;2.60;81.50
51215;DHT22;63849;47.546;19.254;2023-02-02T07:24:52;2.70;80.90
51215;DHT22;63849;47.546;19.254;2023-02-02T07:27:18;2.70;81.10
51215;DHT22;63849;47.546;19.254;2023-02-02T07:29:44;2.70;80.70
51215;DHT22;63849;47.546;19.254;2023-02-02T07:32:10;2.70;80.80
51215;DHT22;63849;47.546;19.254;2023-02-02T07:34:37;2.80;80.70
51215;DHT22;63849;47.546;19.254;2023-02-02T07:37:03;2.70;80.70
51215;DHT22;63849;47.546;19.254;2023-02-02T07:39:29;2.80;80.90
51215;DHT22;63849;47.546;19.254;2023-02-02T07:41:54;2.80;80.30
51215;DHT22;63849;47.546;19.254;2023-02-02T07:44:20;2.90;79.70
51215;DHT22;63849;47.546;19.254;2023-02-02T07:46:46;3.00;79.10
51215;DHT22;63849;47.546;19.254;2023-02-02T07:49:16;3.00;79.00
51215;DHT22;63849;47.546;19.254;2023-02-02T07:51:43;3.00;79.50
51215;DHT22;63849;47.546;19.254;2023-02-02T07:54:09;3.10;79.10
51215;DHT22;63849;47.546;19.254;2023-02-02T07:56:36;3.10;79.00
51215;DHT22;63849;47.546;19.254;2023-02-02T07:59:03;3.10;78.30
51215;DHT22;63849;47.546;19.254;2023-02-02T08:01:29;3.20;77.90
51215;DHT22;63849;47.546;19.254;2023-02-02T08:03:57;3.20;77.30
51215;DHT22;63849;47.546;19.254;2023-02-02T08:06:27;3.10;78.10
51215;DHT22;63849;47.546;19.254;2023-02-02T08:08:54;3.20;77.40
51215;DHT22;63849;47.546;19.254;2023-02-02T08:11:21;3.30;77.40
51215;DHT22;63849;47.546;19.254;2023-02-02T08:13:49;3.20;78.10
51215;DHT22;63849;47.546;19.254;2023-02-02T08:16:15;3.30;78.00
51215;DHT22;63849;47.546;19.254;2023-02-02T08:18:41;3.30;77.00
51215;DHT22;63849;47.546;19.254;2023-02-02T08:21:08;3.40;76.80
51215;DHT22;63849;47.546;19.254;2023-02-02T08:23:35;3.50;76.60
51215;DHT22;63849;47.546;19.254;2023-02-02T08:26:09;3.50;77.20
51215;DHT22;63849;47.546;19.254;2023-02-02T08:28:35;3.60;76.80
51215;DHT22;63849;47.546;19.254;2023-02-02T08:31:06;3.60;76.40
51215;DHT22;63849;47.546;19.254;2023-02-02T08:33:32;3.60;76.80
51215;DHT22;63849;47.546;19.254;2023-02-02T08:35:58;3.60;76.70
51215;DHT22;63849;47.546;19.254;2023-02-02T08:38:24;3.80;76.40
51215;DHT22;63849;47.546;19.254;2023-02-02T08:40:50;3.90;76.80
51215;DHT22;63849;47.546;19.254;2023-02-02T08:43:15;4.20;75.50
51215;DHT22;63849;47.546;19.254;2023-02-02T08:45:42;4.40;74.60
51215;DHT22;63849;47.546;19.254;2023-02-02T08:48:08;4.60;74.60
51215;DHT22;63849;47.546;19.254;2023-02-02T08:50:34;4.80;73.90
51215;DHT22;63849;47.546;19.254;2023-02-02T08:53:00;5.00;73.80
51215;DHT22;63849;47.546;19.254;2023-02-02T08:55:25;5.00;73.00
51215;DHT22;63849;47.546;19.254;2023-02-02T08:57:51;5.10;72.90
51215;DHT22;63849;47.546;19.254;2023-02-02T09:00:17;5.20;72.00
51215;DHT22;63849;47.546;19.254;2023-02-02T09:02:43;5.20;72.70
51215;DHT22;63849;47.546;19.254;2023-02-02T09:05:09;5.10;71.80
51215;DHT22;63849;47.546;19.254;2023-02-02T09:07:35;5.00;72.70
51215;DHT22;63849;47.546;19.254;2023-02-02T09:10:00;5.10;71.80
51215;DHT22;63849;47.546;19.254;2023-02-02T09:12:26;5.10;71.70
51215;DHT22;63849;47.546;19.254;2023-02-02T09:14:52;5.30;72.30
51215;DHT22;63849;47.546;19.254;2023-02-02T09:17:18;5.30;71.70
51215;DHT22;63849;47.546;19.254;2023-02-02T09:19:43;5.30;71.20
51215;DHT22;63849;47.546;19.254;2023-02-02T09:22:09;4.90;71.90
51215;DHT22;63849;47.546;19.254;2023-02-02T09:24:35;4.90;72.10
51215;DHT22;63849;47.546;19.254;2023-02-02T09:27:01;4.90;72.10
51215;DHT22;63849;47.546;19.254;2023-02-02T09:29:26;5.00;72.00
51215;DHT22;63849;47.546;19.254;2023-02-02T09:31:52;5.10;72.30
51215;DHT22;63849;47.546;19.254;2023-02-02T09:34:18;5.10;71.70
51215;DHT22;63849;47.546;19.254;2023-02-02T09:36:44;5.20;72.30
51215;DHT22;63849;47.546;19.254;2023-02-02T09:39:11;5.40;71.60
51215;DHT22;63849;47.546;19.254;2023-02-02T09:52:06;5.60;70.70
51215;DHT22;63849;47.546;19.254;2023-02-02T09:54:45;5.80;69.40
51215;DHT22;63849;47.546;19.254;2023-02-02T09:57:24;5.90;69.60
51215;DHT22;63849;47.546;19.254;2023-02-02T09:59:52;5.90;71.20
51215;DHT22;63849;47.546;19.254;2023-02-02T10:02:26;6.10;70.60
51215;DHT22;63849;47.546;19.254;2023-02-02T10:05:01;6.20;69.40
51215;DHT22;63849;47.546;19.254;2023-02-02T10:07:33;6.30;69.20
51215;DHT22;63849;47.546;19.254;2023-02-02T10:12:53;6.30;67.90
51215;DHT22;63849;47.546;19.254;2023-02-02T10:15:41;6.50;68.50
51215;DHT22;63849;47.546;19.254;2023-02-02T10:18:14;6.50;68.80
51215;DHT22;63849;47.546;19.254;2023-02-02T10:23:43;6.40;67.60
51215;DHT22;63849;47.546;19.254;2023-02-02T10:26:28;6.60;65.90
51215;DHT22;63849;47.546;19.254;2023-02-02T10:29:16;6.50;66.80
51215;DHT22;63849;47.546;19.254;2023-02-02T10:37:33;6.60;67.50
51215;DHT22;63849;47.546;19.254;2023-02-02T10:45:43;6.30;67.20
51215;DHT22;63849;47.546;19.254;2023-02-02T10:48:21;6.20;68.40
51215;DHT22;63849;47.546;19.254;2023-02-02T10:50:51;6.20;67.40
51215;DHT22;63849;47.546;19.254;2023-02-02T10:53:18;6.30;67.80
51215;DHT22;63849;47.546;19.254;2023-02-02T10:55:52;6.20;67.90
51215;DHT22;63849;47.546;19.254;2023-02-02T10:58:36;6.40;66.90
51215;DHT22;63849;47.546;19.254;2023-02-02T11:01:06;6.50;66.50
51215;DHT22;63849;47.546;19.254;2023-02-02T11:03:36;6.50;67.20
51215;DHT22;63849;47.546;19.254;2023-02-02T11:06:06;6.70;67.90
51215;DHT22;63849;47.546;19.254;2023-02-02T11:08:52;6.80;66.50
51215;DHT22;63849;47.546;19.254;2023-02-02T11:11:33;6.70;66.10
51215;DHT22;63849;47.546;19.254;2023-02-02T11:14:15;6.50;66.80
51215;DHT22;63849;47.546;19.254;2023-02-02T11:16:44;6.60;67.20
51215;DHT22;63849;47.546;19.254;2023-02-02T11:21:44;6.70;67.50
51215;DHT22;63849;47.546;19.254;2023-02-02T11:24:26;6.70;66.50
51215;DHT22;63849;47.546;19.254;2023-02-02T11:26:55;6.60;66.60
51215;DHT22;63849;47.546;19.254;2023-02-02T11:29:43;6.60;66.50
51215;DHT22;63849;47.546;19.254;2023-02-02T11:37:30;6.50;67.00
51215;DHT22;63849;47.546;19.254;2023-02-02T11:40:31;6.70;68.30
51215;DHT22;63849;47.546;19.254;2023-02-02T11:43:01;6.50;68.10
51215;DHT22;63849;47.546;19.254;2023-02-02T11:45:37;6.40;66.80
51215;DHT22;63849;47.546;19.254;2023-02-02T11:48:19;6.40;66.50
51215;DHT22;63849;47.546;19.254;2023-02-02T11:50:53;6.30;68.30
51215;DHT22;63849;47.546;19.254;2023-02-02T11:55:51;6.10;68.50
51215;DHT22;63849;47.546;19.254;2023-02-02T11:58:21;6.10;68.00
51215;DHT22;63849;47.546;19.254;2023-02-02T12:00:57;6.10;68.20
51215;DHT22;63849;47.546;19.254;2023-02-02T12:03:33;6.10;67.70
51215;DHT22;63849;47.546;19.254;2023-02-02T12:06:00;6.00;67.60
51215;DHT22;63849;47.546;19.254;2023-02-02T12:08:29;6.00;68.00
51215;DHT22;63849;47.546;19.254;2023-02-02T12:11:00;5.90;68.80
51215;DHT22;63849;47.546;19.254;2023-02-02T12:24:55;5.90;69.50
51215;DHT22;63849;47.546;19.254;2023-02-02T12:33:12;5.70;70.00
51215;DHT22;63849;47.546;19.254;2023-02-02T12:44:54;5.90;68.10
51215;DHT22;63849;47.546;19.254;2023-02-02T12:55:43;5.60;69.20
51215;DHT22;63849;47.546;19.254;2023-02-02T12:58:23;5.60;69.30
51215;DHT22;63849;47.546;19.254;2023-02-02T13:06:40;5.60;70.30
51215;DHT22;63849;47.546;19.254;2023-02-02T13:09:14;5.60;70.60
51215;DHT22;63849;47.546;19.254;2023-02-02T13:12:08;5.60;69.90
51215;DHT22;63849;47.546;19.254;2023-02-02T13:14:42;5.50;70.00
51215;DHT22;63849;47.546;19.254;2023-02-02T13:17:16;5.40;70.00
51215;DHT22;63849;47.546;19.254;2023-02-02T13:19:55;5.50;70.30
51215;DHT22;63849;47.546;19.254;2023-02-02T13:22:35;5.40;70.30
51215;DHT22;63849;47.546;19.254;2023-02-02T13:25:05;5.60;70.50
51215;DHT22;63849;47.546;19.254;2023-02-02T13:27:33;5.40;70.20
51215;DHT22;63849;47.546;19.254;2023-02-02T13:32:42;5.40;70.60
51215;DHT22;63849;47.546;19.254;2023-02-02T13:35:26;5.40;71.00
51215;DHT22;63849;47.546;19.254;2023-02-02T13:38:17;5.40;70.20
51215;DHT22;63849;47.546;19.254;2023-02-02T13:40:44;5.30;70.30
51215;DHT22;63849;47.546;19.254;2023-02-02T13:46:19;5.40;70.50
51215;DHT22;63849;47.546;19.254;2023-02-02T13:57:18;5.40;70.30
51215;DHT22;63849;47.546;19.254;2023-02-02T14:02:25;5.30;71.00
51215;DHT22;63849;47.546;19.254;2023-02-02T14:04:56;5.30;71.90
51215;DHT22;63849;47.546;19.254;2023-02-02T14:07:34;5.30;71.50
51215;DHT22;63849;47.546;19.254;2023-02-02T14:10:01;5.30;71.00
51215;DHT22;63849;47.546;19.254;2023-02-02T14:12:32;5.30;70.20
51215;DHT22;63849;47.546;19.254;2023-02-02T14:14:59;5.30;71.00
51215;DHT22;63849;47.546;19.254;2023-02-02T14:19:57;5.40;70.70
51215;DHT22;63849;47.546;19.254;2023-02-02T14:22:40;5.40;70.90
51215;DHT22;63849;47.546;19.254;2023-02-02T14:28:01;5.30;70.50
51215;DHT22;63849;47.546;19.254;2023-02-02T14:30:33;5.30;70.80
51215;DHT22;63849;47.546;19.254;2023-02-02T14:33:24;5.30;71.00
51215;DHT22;63849;47.546;19.254;2023-02-02T14:35:52;5.30;70.80
51215;DHT22;63849;47.546;19.254;2023-02-02T14:38:42;5.30;70.70
51215;DHT22;63849;47.546;19.254;2023-02-02T14:44:11;5.20;71.20
51215;DHT22;63849;47.546;19.254;2023-02-02T14:46:39;5.20;71.00
51215;DHT22;63849;47.546;19.254;2023-02-02T14:49:09;5.10;71.50
51215;DHT22;63849;47.546;19.254;2023-02-02T14:52:03;5.10;71.40
51215;DHT22;63849;47.546;19.254;2023-02-02T14:54:36;5.00;71.60
51215;DHT22;63849;47.546;19.254;2023-02-02T14:57:23;5.10;71.30
51215;DHT22;63849;47.546;19.254;2023-02-02T14:59:50;5.10;71.60
51215;DHT22;63849;47.546;19.254;2023-02-02T15:02:30;5.00;71.80
51215;DHT22;63849;47.546;19.254;2023-02-02T15:07:54;5.00;71.70
51215;DHT22;63849;47.546;19.254;2023-02-02T15:13:33;5.00;71.20
51215;DHT22;63849;47.546;19.254;2023-02-02T15:16:25;4.90;71.30
51215;DHT22;63849;47.546;19.254;2023-02-02T15:19:03;4.90;71.90
51215;DHT22;63849;47.546;19.254;2023-02-02T15:21:31;4.80;71.80
51215;DHT22;63849;47.546;19.254;2023-02-02T15:23:58;4.80;71.50
51215;DHT22;63849;47.546;19.254;2023-02-02T15:26:28;4.80;71.90
51215;DHT22;63849;47.546;19.254;2023-02-02T15:29:04;4.80;72.50
51215;DHT22;63849;47.546;19.254;2023-02-02T15:31:42;4.80;72.00
51215;DHT22;63849;47.546;19.254;2023-02-02T15:36:46;4.70;72.20
51215;DHT22;63849;47.546;19.254;2023-02-02T15:39:30;4.60;72.20
51215;DHT22;63849;47.546;19.254;2023-02-02T15:42:00;4.50;72.50
51215;DHT22;63849;47.546;19.254;2023-02-02T15:44:45;4.40;73.20
51215;DHT22;63849;47.546;19.254;2023-02-02T15:47:27;4.40;72.80
51215;DHT22;63849;47.546;19.254;2023-02-02T15:49:55;4.40;72.90
51215;DHT22;63849;47.546;19.254;2023-02-02T15:52:30;4.40;73.30
51215;DHT22;63849;47.546;19.254;2023-02-02T15:55:00;4.30;73.30
51215;DHT22;63849;47.546;19.254;2023-02-02T15:57:35;4.30;73.80
51215;DHT22;63849;47.546;19.254;2023-02-02T16:03:00;4.30;73.50
51215;DHT22;63849;47.546;19.254;2023-02-02T16:08:00;4.10;74.80
51215;DHT22;63849;47.546;19.254;2023-02-02T16:10:27;4.10;74.40
51215;DHT22;63849;47.546;19.254;2023-02-02T16:12:53;4.10;74.50
51215;DHT22;63849;47.546;19.254;2023-02-02T16:15:23;4.00;75.20
51215;DHT22;63849;47.546;19.254;2023-02-02T16:18:00;4.00;75.00
51215;DHT22;63849;47.546;19.254;2023-02-02T16:20:28;3.90;75.30
51215;DHT22;63849;47.546;19.254;2023-02-02T16:22:56;4.00;75.30
51215;DHT22;63849;47.546;19.254;2023-02-02T16:25:29;3.80;75.80
51215;DHT22;63849;47.546;19.254;2023-02-02T16:27:56;3.90;75.50
51215;DHT22;63849;47.546;19.254;2023-02-02T16:30:28;3.90;76.10
51215;DHT22;63849;47.546;19.254;2023-02-02T16:32:54;3.90;75.70
51215;DHT22;63849;47.546;19.254;2023-02-02T16:35:37;3.90;75.60
51215;DHT22;63849;47.546;19.254;2023-02-02T16:38:28;3.90;75.70
51215;DHT22;63849;47.546;19.254;2023-02-02T16:43:30;3.90;75.90
51215;DHT22;63849;47.546;19.254;2023-02-02T16:45:59;3.90;75.70
51215;DHT22;63849;47.546;19.254;2023-02-02T16:49:13;3.90;75.70
51215;DHT22;63849;47.546;19.254;2023-02-02T16:51:32;3.90;75.40
51215;DHT22;63849;47.546;19.254;2023-02-02T16:54:10;3.80;75.80
51215;DHT22;63849;47.546;19.254;2023-02-02T16:56:41;3.80;76.10
51215;DHT22;63849;47.546;19.254;2023-02-02T16:59:35;3.80;76.80
51215;DHT22;63849;47.546;19.254;2023-02-02T17:04:53;3.80;76.60
51215;DHT22;63849;47.546;19.254;2023-02-02T17:07:21;3.90;76.20
51215;DHT22;63849;47.546;19.254;2023-02-02T17:09:48;4.00;75.80
51215;DHT22;63849;47.546;19.254;2023-02-02T17:17:44;4.20;75.60
51215;DHT22;63849;47.546;19.254;2023-02-02T17:20:14;4.20;75.80
51215;DHT22;63849;47.546;19.254;2023-02-02T17:22:50;4.10;76.00
51215;DHT22;63849;47.546;19.254;2023-02-02T17:25:32;4.00;76.20
51215;DHT22;63849;47.546;19.254;2023-02-02T17:27:59;3.90;76.00
51215;DHT22;63849;47.546;19.254;2023-02-02T17:30:28;3.80;76.60
51215;DHT22;63849;47.546;19.254;2023-02-02T17:32:54;3.80;76.70
51215;DHT22;63849;47.546;19.254;2023-02-02T17:35:22;3.80;76.80
51215;DHT22;63849;47.546;19.254;2023-02-02T17:37:49;3.60;77.40
51215;DHT22;63849;47.546;19.254;2023-02-02T17:40:17;3.60;77.50
51215;DHT22;63849;47.546;19.254;2023-02-02T17:42:45;3.60;77.80
51215;DHT22;63849;47.546;19.254;2023-02-02T17:45:23;3.50;77.80
51215;DHT22;63849;47.546;19.254;2023-02-02T17:47:52;3.40;78.00
51215;DHT22;63849;47.546;19.254;2023-02-02T17:50:19;3.40;78.10
51215;DHT22;63849;47.546;19.254;2023-02-02T17:52:46;3.40;77.90
51215;DHT22;63849;47.546;19.254;2023-02-02T17:57:43;3.30;78.80
51215;DHT22;63849;47.546;19.254;2023-02-02T18:00:09;3.30;78.80
51215;DHT22;63849;47.546;19.254;2023-02-02T18:02:35;3.30;78.80
51215;DHT22;63849;47.546;19.254;2023-02-02T18:05:02;3.30;78.80
51215;DHT22;63849;47.546;19.254;2023-02-02T18:07:28;3.30;78.50
51215;DHT22;63849;47.546;19.254;2023-02-02T18:09:54;3.30;78.90
51215;DHT22;63849;47.546;19.254;2023-02-02T18:12:20;3.20;79.10
51215;DHT22;63849;47.546;19.254;2023-02-02T18:14:45;3.20;79.20
51215;DHT22;63849;47.546;19.254;2023-02-02T18:17:11;3.10;79.10
51215;DHT22;63849;47.546;19.254;2023-02-02T18:19:37;3.00;79.80
51215;DHT22;63849;47.546;19.254;2023-02-02T18:22:04;3.10;79.80
51215;DHT22;63849;47.546;19.254;2023-02-02T18:24:31;3.10;79.60